Terminal Aerodrome Forecast
Issued by NWS

Current Version | Previous Version | Text Only | Print | Product List | Glossary Off
Versions: 1 2 3 4 5 6 7 8 9 10 11 12 13 14 15 16 17 18 19 20 21

000
FTUS41 KRNK 232339
TAFLWB
TAF
KLWB 232339Z 2400/2424 09006KT P6SM -RA OVC040
     FM240300 09008G16KT P6SM OVC015
      TEMPO 2404/2408 2SM -RA BR OVC007
     FM240800 08008KT P6SM -SHRA OVC008=

USA.gov is the U.S. government's official web portal to all federal, state and local government web resources and services.